createdAt,value
2023-03-13T00:00:51.802Z,97850.65
2023-03-13T00:07:59.937Z,97843.95
2023-03-13T00:15:00.347Z,97832.34
2023-03-13T00:17:33.551Z,97820.80
2023-03-13T00:20:35.993Z,97818.42
2023-03-13T00:23:10.650Z,97820.57
2023-03-13T00:26:34.992Z,97816.79
2023-03-13T00:29:07.334Z,97804.65
2023-03-13T00:31:47.103Z,97799.08
2023-03-13T00:37:54.091Z,97791.98
2023-03-13T00:40:33.581Z,97791.98
2023-03-13T00:43:05.843Z,97790.92
2023-03-13T00:45:45.480Z,97783.39
2023-03-13T00:52:43.024Z,97778.73
2023-03-13T00:55:21.983Z,97778.05
2023-03-13T01:06:48.389Z,97775.09
2023-03-13T01:14:01.095Z,97771.84
2023-03-13T01:17:04.616Z,97763.25
2023-03-13T01:19:44.126Z,97764.80
2023-03-13T01:22:16.343Z,97772.40
2023-03-13T01:24:56.254Z,97764.78
2023-03-13T01:32:01.466Z,97762.61
2023-03-13T01:34:40.710Z,97756.15
2023-03-13T01:37:13.149Z,97744.57
2023-03-13T01:39:54.712Z,97732.83
2023-03-13T01:47:48.221Z,97724.40
2023-03-13T01:52:09.449Z,97714.16
2023-03-13T01:59:41.977Z,97714.23
2023-03-13T02:02:16.014Z,97711.55
2023-03-13T02:05:18.353Z,97707.44
2023-03-13T02:16:20.891Z,97700.75
2023-03-13T02:23:39.963Z,97701.26
2023-03-13T02:30:32.041Z,97704.30
2023-03-13T02:33:06.271Z,97711.35
2023-03-13T02:36:08.257Z,97704.83
2023-03-13T02:47:28.362Z,97713.48
2023-03-13T02:54:42.422Z,97715.66
2023-03-13T02:57:35.731Z,97717.88
2023-03-13T03:03:59.256Z,97718.34
2023-03-13T03:06:32.943Z,97708.95
2023-03-13T03:09:38.386Z,97714.39
2023-03-13T03:12:57.554Z,97725.32
2023-03-13T03:15:36.285Z,97719.72
2023-03-13T03:18:09.040Z,97720.32
2023-03-13T03:20:48.164Z,97722.85
2023-03-13T03:27:55.244Z,97725.07
2023-03-13T03:30:27.966Z,97725.22
2023-03-13T03:33:30.275Z,97724.48
2023-03-13T03:40:35.317Z,97744.66
2023-03-13T03:43:14.202Z,97745.77
2023-03-13T03:50:28.377Z,97741.42
2023-03-13T03:53:32.503Z,97735.90
2023-03-13T04:00:22.957Z,97739.02
2023-03-13T04:03:18.107Z,97740.90
2023-03-13T04:10:09.016Z,97732.64
2023-03-13T04:17:13.249Z,97751.10
2023-03-13T04:19:46.003Z,97754.73
2023-03-13T04:22:25.354Z,97760.27
2023-03-13T04:29:27.598Z,97763.50
2023-03-13T04:45:41.340Z,97753.48
2023-03-13T04:49:33.114Z,97748.51
2023-03-13T04:52:42.324Z,97746.33
2023-03-13T05:00:31.353Z,97733.64
2023-03-13T05:03:55.311Z,97726.59
2023-03-13T05:15:14.425Z,97718.48
2023-03-13T05:27:30.384Z,97709.77
2023-03-13T05:30:41.508Z,97705.40
2023-03-13T05:33:59.395Z,97702.32
2023-03-13T05:37:10.454Z,97696.07
2023-03-13T05:40:26.500Z,97686.27
2023-03-13T05:43:37.525Z,97691.86
2023-03-13T05:46:55.350Z,97693.48
2023-03-13T06:07:50.379Z,97690.86
2023-03-13T06:10:29.807Z,97690.96
2023-03-13T06:13:17.150Z,97691.76
2023-03-13T06:16:44.445Z,97687.77
2023-03-13T06:19:55.513Z,97681.80
2023-03-13T06:22:34.493Z,97677.85
2023-03-13T06:25:08.305Z,97680.79
2023-03-13T06:27:47.430Z,97684.49
2023-03-13T06:30:20.199Z,97679.44
2023-03-13T06:32:59.223Z,97680.77
2023-03-13T06:40:06.384Z,97675.81
2023-03-13T06:42:45.622Z,97676.38
2023-03-13T06:49:59.748Z,97676.11
2023-03-13T06:52:44.034Z,97676.25
2023-03-13T06:56:03.454Z,97672.41
2023-03-13T06:58:45.166Z,97665.10
2023-03-13T07:06:05.870Z,97663.88
2023-03-13T07:13:10.504Z,97667.42
2023-03-13T07:22:29.537Z,97658.52
2023-03-13T07:29:43.519Z,97642.81
2023-03-13T07:33:08.811Z,97639.59
2023-03-13T07:40:15.963Z,97611.62
2023-03-13T07:42:48.106Z,97590.34
2023-03-13T07:45:26.490Z,97580.30
2023-03-13T07:47:58.616Z,97573.48
2023-03-13T07:50:30.914Z,97570.58
2023-03-13T07:53:03.111Z,97575.11
2023-03-13T07:55:35.189Z,97583.56
2023-03-13T07:58:07.271Z,97588.34
2023-03-13T08:00:40.059Z,97579.39
2023-03-13T08:12:23.419Z,97472.28
2023-03-13T08:15:03.224Z,97461.27
2023-03-13T08:17:46.987Z,97447.38
2023-03-13T08:20:25.914Z,97454.08
2023-03-13T08:22:59.466Z,97441.12
2023-03-13T08:25:32.120Z,97406.73
2023-03-13T08:37:09.871Z,97393.42
2023-03-13T08:43:58.072Z,97384.54
2023-03-13T08:46:38.794Z,97362.69
2023-03-13T08:49:12.460Z,97317.02
2023-03-13T08:51:45.231Z,97300.30
2023-03-13T08:58:13.466Z,97312.48
2023-03-13T09:00:48.992Z,97312.48
2023-03-13T09:04:06.236Z,97307.70
2023-03-13T09:14:34.629Z,97295.64
2023-03-13T09:29:45.718Z,97325.11
2023-03-13T09:32:27.719Z,97336.23
2023-03-13T09:35:40.922Z,97330.73
2023-03-13T09:38:34.582Z,97307.59
2023-03-13T09:48:38.406Z,97272.67
2023-03-13T09:51:30.798Z,97273.88
2023-03-13T10:01:52.710Z,97306.48
2023-03-13T10:09:01.625Z,97306.92
2023-03-13T10:24:14.472Z,97252.50
2023-03-13T10:26:46.700Z,97206.50
2023-03-13T10:50:47.358Z,97115.32
2023-03-13T11:02:28.884Z,97133.71
2023-03-13T11:09:20.858Z,97140.49
2023-03-13T11:11:56.742Z,97133.30
2023-03-13T11:14:28.949Z,97133.62
2023-03-13T11:29:50.750Z,97120.73
2023-03-13T11:32:33.792Z,97120.78
2023-03-13T11:48:42.733Z,97137.16
2023-03-13T12:04:36.989Z,97148.57
2023-03-13T12:11:35.471Z,97151.28
2023-03-13T12:18:42.204Z,97158.54
2023-03-13T12:22:08.011Z,97169.48
2023-03-13T12:36:26.628Z,97235.55
2023-03-13T12:43:01.651Z,97256.58
2023-03-13T12:45:46.850Z,97273.23
2023-03-13T12:53:21.580Z,97279.61
2023-03-13T13:08:06.231Z,97245.17
2023-03-13T13:10:41.617Z,97239.62
2023-03-13T13:19:36.233Z,97232.30
2023-03-13T13:31:48.197Z,97211.92
2023-03-13T13:34:53.905Z,97208.59
2023-03-13T13:37:33.592Z,97208.31
2023-03-13T13:45:21.766Z,97192.42
2023-03-13T13:55:49.930Z,97154.83
2023-03-13T13:58:32.659Z,97146.90
2023-03-13T14:06:27.973Z,97145.70
2023-03-13T14:14:08.910Z,97137.23
2023-03-13T14:21:14.762Z,97131.36
2023-03-13T14:23:53.428Z,97144.33
2023-03-13T14:26:26.940Z,97150.81
2023-03-13T14:29:26.068Z,97145.86
2023-03-13T14:31:59.697Z,97140.27
2023-03-13T14:34:32.886Z,97141.55
2023-03-13T14:40:40.513Z,97131.27
2023-03-13T14:47:53.430Z,97124.45
2023-03-13T14:50:26.760Z,97122.20
2023-03-13T14:53:10.999Z,97127.86
2023-03-13T15:04:56.213Z,97124.52
2023-03-13T15:07:38.836Z,97116.94
2023-03-13T15:10:25.567Z,97111.17
2023-03-13T15:12:57.974Z,97116.77
2023-03-13T15:15:31.103Z,97112.73
2023-03-13T15:18:03.296Z,97107.77
2023-03-13T15:20:35.450Z,97101.17
2023-03-13T15:23:15.266Z,97103.01
2023-03-13T15:25:48.164Z,97097.33
2023-03-13T15:28:23.661Z,97103.29
2023-03-13T15:30:56.055Z,97098.15
2023-03-13T15:33:30.846Z,97098.42
2023-03-13T15:36:03.181Z,97104.38
2023-03-13T15:38:35.892Z,97113.41
2023-03-13T15:41:10.053Z,97119.55
2023-03-13T15:43:42.175Z,97120.38
2023-03-13T15:46:18.374Z,97117.39
2023-03-13T15:48:51.512Z,97120.36
2023-03-13T15:51:26.064Z,97118.59
2023-03-13T15:54:09.844Z,97124.31
2023-03-13T15:56:42.523Z,97123.02
2023-03-13T15:59:16.573Z,97131.65
2023-03-13T16:01:49.892Z,97131.79
2023-03-13T16:04:22.630Z,97132.70
2023-03-13T16:06:54.891Z,97136.76
2023-03-13T16:09:27.317Z,97134.53
2023-03-13T16:11:59.870Z,97126.70
2023-03-13T16:14:32.180Z,97125.17
2023-03-13T16:17:12.651Z,97121.70
2023-03-13T16:19:45.460Z,97123.55
2023-03-13T16:22:17.727Z,97127.06
2023-03-13T16:24:49.897Z,97129.05
2023-03-13T16:27:22.774Z,97130.58
2023-03-13T16:30:18.960Z,97131.44
2023-03-13T16:32:51.485Z,97137.66
2023-03-13T16:35:24.141Z,97143.06
2023-03-13T16:37:56.917Z,97149.21
2023-03-13T16:40:31.221Z,97151.45
2023-03-13T16:43:03.620Z,97150.33
2023-03-13T16:45:36.088Z,97148.38
2023-03-13T16:48:11.984Z,97148.48
2023-03-13T16:50:46.588Z,97149.83
2023-03-13T16:53:27.587Z,97148.80
2023-03-13T16:56:00.057Z,97153.61
2023-03-13T16:58:32.219Z,97153.08
2023-03-13T17:01:06.061Z,97140.17
2023-03-13T17:03:38.527Z,97143.84
2023-03-13T17:06:30.445Z,97136.83
2023-03-13T17:09:03.066Z,97135.49
2023-03-13T17:11:35.207Z,97133.69
2023-03-13T17:14:08.096Z,97129.40
2023-03-13T17:16:42.911Z,97134.39
2023-03-13T17:19:37.261Z,97127.21
2023-03-13T17:22:43.186Z,97124.63
2023-03-13T17:29:48.331Z,97111.56
2023-03-13T17:36:39.774Z,97109.52
2023-03-13T17:39:15.888Z,97103.95
2023-03-13T17:41:48.091Z,97100.02
2023-03-13T17:44:20.357Z,97096.20
2023-03-13T17:46:59.298Z,97092.98
2023-03-13T17:53:38.305Z,97080.65
2023-03-13T18:05:00.967Z,97085.28
2023-03-13T18:11:16.742Z,97083.33
2023-03-13T18:17:32.201Z,97069.52
2023-03-13T18:30:24.836Z,97045.00
2023-03-13T18:32:57.056Z,97054.63
2023-03-13T18:39:21.350Z,97053.05
2023-03-13T18:46:51.995Z,97034.46
2023-03-13T18:49:25.457Z,97027.02
2023-03-13T18:51:57.620Z,97025.29
2023-03-13T18:54:36.571Z,97031.36
2023-03-13T18:57:28.037Z,97037.03
2023-03-13T19:00:00.307Z,97031.58
2023-03-13T19:02:55.683Z,97031.86
2023-03-13T19:05:35.784Z,97030.54
2023-03-13T19:08:10.140Z,97035.98
2023-03-13T19:10:49.457Z,97047.55
2023-03-13T19:14:18.209Z,97043.92
2023-03-13T19:16:53.100Z,97032.32
2023-03-13T19:24:18.205Z,97016.48
2023-03-13T19:35:50.535Z,97008.41
2023-03-13T19:38:22.664Z,97013.04
2023-03-13T19:41:01.528Z,97012.91
2023-03-13T19:43:33.833Z,97015.95
2023-03-13T19:50:41.440Z,97017.97
2023-03-13T19:53:13.782Z,97013.73
2023-03-13T19:55:45.969Z,97020.69
2023-03-13T19:58:18.271Z,97027.05
2023-03-13T20:00:50.857Z,97019.28
2023-03-13T20:07:56.214Z,97015.41
2023-03-13T20:15:00.540Z,97017.36
2023-03-13T20:22:05.382Z,97010.27
2023-03-13T20:24:38.885Z,97013.48
2023-03-13T20:27:17.612Z,97013.34
2023-03-13T20:29:49.850Z,97008.91
2023-03-13T20:36:56.607Z,97006.77
2023-03-13T20:40:15.119Z,97006.54
2023-03-13T20:42:53.732Z,96996.05
2023-03-13T20:45:28.886Z,96996.84
2023-03-13T20:48:45.612Z,96991.38
2023-03-13T20:51:24.933Z,96994.23
2023-03-13T20:54:49.752Z,96984.83
2023-03-13T20:58:13.589Z,96981.95
2023-03-13T21:00:46.256Z,96990.25
2023-03-13T21:03:24.732Z,96999.04
2023-03-13T21:05:57.241Z,96994.73
2023-03-13T21:08:37.650Z,96994.26
2023-03-13T21:29:33.794Z,96961.41
2023-03-13T21:32:39.532Z,96965.64
2023-03-13T21:35:13.369Z,96958.48
2023-03-13T21:37:51.626Z,96951.27
2023-03-13T21:40:23.863Z,96951.12
2023-03-13T21:43:04.076Z,96945.18
2023-03-13T21:45:36.398Z,96948.89
2023-03-13T21:48:08.843Z,96947.79
2023-03-13T21:50:41.103Z,96940.21
2023-03-13T21:53:20.127Z,96934.02
2023-03-13T21:55:53.741Z,96927.54
2023-03-13T22:02:57.683Z,96918.42
2023-03-13T22:05:30.258Z,96916.86
2023-03-13T22:08:08.754Z,96917.63
2023-03-13T22:10:41.639Z,96917.61
2023-03-13T22:13:20.988Z,96916.46
2023-03-13T22:15:53.575Z,96904.21
2023-03-13T22:18:32.779Z,96895.11
2023-03-13T22:25:40.541Z,96891.39
2023-03-13T22:32:41.734Z,96885.95
2023-03-13T22:35:14.204Z,96888.41
2023-03-13T22:37:52.625Z,96878.13
2023-03-13T22:40:24.930Z,96879.93
2023-03-13T22:43:03.885Z,96882.25
2023-03-13T22:45:36.448Z,96886.27
2023-03-13T22:48:09.234Z,96879.54
2023-03-13T22:50:41.438Z,96873.02
2023-03-13T22:53:19.671Z,96872.59
2023-03-13T22:55:52.275Z,96862.54
2023-03-13T22:58:31.225Z,96864.51
2023-03-13T23:01:06.547Z,96857.65
2023-03-13T23:04:31.111Z,96864.52
2023-03-13T23:11:45.443Z,96860.76
2023-03-13T23:14:23.754Z,96861.44
2023-03-13T23:16:56.455Z,96849.52
2023-03-13T23:19:37.621Z,96842.29
2023-03-13T23:26:43.253Z,96834.20
2023-03-13T23:29:16.583Z,96826.89
2023-03-13T23:31:55.771Z,96825.42
2023-03-13T23:34:28.083Z,96830.75
2023-03-13T23:37:07.178Z,96825.09
2023-03-13T23:39:39.962Z,96817.56
2023-03-13T23:42:12.353Z,96810.91
2023-03-13T23:44:52.860Z,96803.44
2023-03-13T23:47:28.476Z,96801.30
2023-03-13T23:50:19.148Z,96801.96
2023-03-13T23:52:51.318Z,96801.13
2023-03-13T23:59:56.192Z,96802.79
